Windthorst, TX

12:45 AM CDT on October 01, 2014 (GMT -0500)
Parker Rd | Change Station
CLOSE
Current Station
Personal Weather Station
Location: Wichita Falls, TX
Elevation: 1030 ft
Nearby Weather Stations

Elev 1030 ft 33.80 °N, 98.54 °W | Updated 7 minutes ago

Clear
Clear
76.1 °F
Feels Like 78 °F
N
8.3
Wind Variable Wind from SSE

Today
High -- | Low -- °F
--% Chance of Precip.
Yesterday
High -- | Low -- °F
Precip. -- in
7:28 AM 7:18 PM
Waxing Crescent, 44% visible
Pressure 29.75 in
Visibility 10.0 miles
Clouds Clear
Heat Index 78 °F
Dew Point 59 °F
Humidity 55%
Rainfall 0.00 in
Snow Depth Not available.
UV 0 out of 12
Pollen 9.50 out of 12
Air Quality Not available.
Flu Activity Not available.
METAR KCWC 010535Z AUTO 16008KT 10SM CLR 24/12 A2975 RMK AO2 LTG DSNT W T02400123

More Conditions Fewer Conditions

Pressure 29.75 in
Visibility 10.0 miles
Clouds Clear
Heat Index 78 °F
Dew Point 59 °F
Humidity 55%
Rainfall 0.00 in
Snow Depth Not available.
UV 0 out of 12
Pollen 9.50 out of 12
Air Quality Not available.
Flu Activity Not available.
METAR KCWC 010535Z AUTO 16008KT 10SM CLR 24/12 A2975 RMK AO2 LTG DSNT W T02400123

More Conditions Fewer Conditions

10-Day Weather Forecast

Almanac

Astronomy

Oct. 01, 2014 Rise Set
Actual Time 7:28 AM CDT 7:18 PM CDT
Civil Twilight 7:03 AM CDT 7:42 PM CDT
Nautical Twilight 6:34 AM CDT 8:11 PM CDT
Astronomical Twilight 6:05 AM CDT 8:40 PM CDT
Moon 2:18 PM CDT 12:03 AM CDT
Length of Visible Light 12h 39m
Length of Day
11h 49m
Tomorrow will be 2m 3s shorter.
Waxing Crescent, 44% of the Moon is Illuminated
Today
Waxing Crescent
Oct 1
First Quarter
Oct 8
Full
Oct 15
Last Quarter
Oct 23
New

Today's Extremes

State Highs State Lows

Community

WunderPhotos

Upload Photos

1,757,875 photos uploaded!

Nearby

Snow Depth

Station Depth Elevation
No new snow has been reported.

Earthquake Activity

City Distance Mag. Time & Date
No recent earthquake activity has been reported nearby.
Minimum magnitude displayed is 2.5.

Coastal Water Temperatures

Place Temperature
No Stations Reporting

Nearby Weather Stations